sensor_id;sensor_type;location;lat;lon;timestamp;P1;durP1;ratioP1;P2;durP2;ratioP2
23252;SDS011;11795;47.054;15.408;2023-01-20T00:00:00;16.4;;;14.3;;
23252;SDS011;11795;47.054;15.408;2023-01-20T00:02:00;17.0;;;14.6;;
23252;SDS011;11795;47.054;15.408;2023-01-20T00:04:00;17.0;;;14.6;;
23252;SDS011;11795;47.054;15.408;2023-01-20T00:06:00;17.0;;;14.6;;
23252;SDS011;11795;47.054;15.408;2023-01-20T00:08:00;20.5;;;16.5;;
23252;SDS011;11795;47.054;15.408;2023-01-20T00:10:00;20.5;;;16.5;;
23252;SDS011;11795;47.054;15.408;2023-01-20T00:12:00;20.3;;;16.5;;
23252;SDS011;11795;47.054;15.408;2023-01-20T00:14:00;20.3;;;16.5;;
23252;SDS011;11795;47.054;15.408;2023-01-20T00:16:00;20.3;;;16.5;;
23252;SDS011;11795;47.054;15.408;2023-01-20T00:18:00;21.1;;;16.7;;
23252;SDS011;11795;47.054;15.408;2023-01-20T00:20:00;21.1;;;16.7;;
23252;SDS011;11795;47.054;15.408;2023-01-20T00:22:00;49.4;;;17.0;;
23252;SDS011;11795;47.054;15.408;2023-01-20T00:24:00;49.4;;;17.0;;
23252;SDS011;11795;47.054;15.408;2023-01-20T00:26:02;49.4;;;17.0;;
23252;SDS011;11795;47.054;15.408;2023-01-20T00:28:00;32.4;;;16.8;;
23252;SDS011;11795;47.054;15.408;2023-01-20T00:30:00;32.4;;;16.8;;
23252;SDS011;11795;47.054;15.408;2023-01-20T00:32:01;29.4;;;17.6;;
23252;SDS011;11795;47.054;15.408;2023-01-20T00:34:00;29.4;;;17.6;;
23252;SDS011;11795;47.054;15.408;2023-01-20T00:36:00;29.4;;;17.6;;
23252;SDS011;11795;47.054;15.408;2023-01-20T00:38:00;60.1;;;19.0;;
23252;SDS011;11795;47.054;15.408;2023-01-20T00:40:00;60.1;;;19.0;;
23252;SDS011;11795;47.054;15.408;2023-01-20T00:42:00;20.3;;;16.2;;
23252;SDS011;11795;47.054;15.408;2023-01-20T00:44:00;20.3;;;16.2;;
23252;SDS011;11795;47.054;15.408;2023-01-20T00:46:00;20.3;;;16.2;;
23252;SDS011;11795;47.054;15.408;2023-01-20T00:48:00;32.5;;;18.1;;
23252;SDS011;11795;47.054;15.408;2023-01-20T00:50:00;32.5;;;18.1;;
23252;SDS011;11795;47.054;15.408;2023-01-20T00:52:00;23.0;;;16.9;;
23252;SDS011;11795;47.054;15.408;2023-01-20T00:54:00;23.0;;;16.9;;
23252;SDS011;11795;47.054;15.408;2023-01-20T00:56:00;23.0;;;16.9;;
23252;SDS011;11795;47.054;15.408;2023-01-20T00:58:00;20.1;;;15.4;;
23252;SDS011;11795;47.054;15.408;2023-01-20T01:00:00;20.1;;;15.4;;
23252;SDS011;11795;47.054;15.408;2023-01-20T01:02:00;21.9;;;16.2;;
23252;SDS011;11795;47.054;15.408;2023-01-20T01:04:00;21.9;;;16.2;;
23252;SDS011;11795;47.054;15.408;2023-01-20T01:06:04;21.9;;;16.2;;
23252;SDS011;11795;47.054;15.408;2023-01-20T01:08:00;23.3;;;15.9;;
23252;SDS011;11795;47.054;15.408;2023-01-20T01:10:00;23.3;;;15.9;;
23252;SDS011;11795;47.054;15.408;2023-01-20T01:12:00;16.9;;;14.0;;
23252;SDS011;11795;47.054;15.408;2023-01-20T01:14:00;16.9;;;14.0;;
23252;SDS011;11795;47.054;15.408;2023-01-20T01:16:00;16.9;;;14.0;;
23252;SDS011;11795;47.054;15.408;2023-01-20T01:18:00;16.1;;;13.6;;
23252;SDS011;11795;47.054;15.408;2023-01-20T01:20:00;16.1;;;13.6;;
23252;SDS011;11795;47.054;15.408;2023-01-20T01:22:00;17.9;;;14.6;;
23252;SDS011;11795;47.054;15.408;2023-01-20T01:24:00;17.9;;;14.6;;
23252;SDS011;11795;47.054;15.408;2023-01-20T01:26:00;17.9;;;14.6;;
23252;SDS011;11795;47.054;15.408;2023-01-20T01:28:00;18.8;;;14.7;;
23252;SDS011;11795;47.054;15.408;2023-01-20T01:30:00;18.8;;;14.7;;
23252;SDS011;11795;47.054;15.408;2023-01-20T01:32:00;16.0;;;13.1;;
23252;SDS011;11795;47.054;15.408;2023-01-20T01:34:00;16.0;;;13.1;;
23252;SDS011;11795;47.054;15.408;2023-01-20T01:36:01;16.0;;;13.1;;
23252;SDS011;11795;47.054;15.408;2023-01-20T01:38:00;18.1;;;13.9;;
23252;SDS011;11795;47.054;15.408;2023-01-20T01:40:00;18.1;;;13.9;;
23252;SDS011;11795;47.054;15.408;2023-01-20T01:42:00;23.6;;;15.2;;
23252;SDS011;11795;47.054;15.408;2023-01-20T01:44:02;23.6;;;15.2;;
23252;SDS011;11795;47.054;15.408;2023-01-20T01:46:00;23.6;;;15.2;;
23252;SDS011;11795;47.054;15.408;2023-01-20T01:48:02;19.4;;;13.7;;
23252;SDS011;11795;47.054;15.408;2023-01-20T01:50:00;19.4;;;13.7;;
23252;SDS011;11795;47.054;15.408;2023-01-20T01:52:00;16.9;;;13.6;;
23252;SDS011;11795;47.054;15.408;2023-01-20T01:54:01;16.9;;;13.6;;
23252;SDS011;11795;47.054;15.408;2023-01-20T01:56:00;16.9;;;13.6;;
23252;SDS011;11795;47.054;15.408;2023-01-20T01:58:00;16.9;;;13.8;;
23252;SDS011;11795;47.054;15.408;2023-01-20T02:00:00;16.9;;;13.8;;
23252;SDS011;11795;47.054;15.408;2023-01-20T02:02:00;15.7;;;12.7;;
23252;SDS011;11795;47.054;15.408;2023-01-20T02:04:02;15.7;;;12.7;;
23252;SDS011;11795;47.054;15.408;2023-01-20T02:06:00;15.7;;;12.7;;
23252;SDS011;11795;47.054;15.408;2023-01-20T02:08:00;14.4;;;12.0;;
23252;SDS011;11795;47.054;15.408;2023-01-20T02:10:00;14.4;;;12.0;;
23252;SDS011;11795;47.054;15.408;2023-01-20T02:12:01;17.2;;;13.6;;
23252;SDS011;11795;47.054;15.408;2023-01-20T02:14:00;17.2;;;13.6;;
23252;SDS011;11795;47.054;15.408;2023-01-20T02:16:04;17.2;;;13.6;;
23252;SDS011;11795;47.054;15.408;2023-01-20T02:18:04;14.9;;;13.1;;
23252;SDS011;11795;47.054;15.408;2023-01-20T02:20:05;14.9;;;13.1;;
23252;SDS011;11795;47.054;15.408;2023-01-20T02:22:03;15.1;;;13.0;;
23252;SDS011;11795;47.054;15.408;2023-01-20T02:24:06;15.1;;;13.0;;
23252;SDS011;11795;47.054;15.408;2023-01-20T02:26:09;15.1;;;13.0;;
23252;SDS011;11795;47.054;15.408;2023-01-20T02:28:12;14.9;;;12.6;;
23252;SDS011;11795;47.054;15.408;2023-01-20T02:30:07;14.9;;;12.6;;
23252;SDS011;11795;47.054;15.408;2023-01-20T02:32:06;33.0;;;14.1;;
23252;SDS011;11795;47.054;15.408;2023-01-20T02:34:01;33.0;;;14.1;;
23252;SDS011;11795;47.054;15.408;2023-01-20T02:36:01;33.0;;;14.1;;
23252;SDS011;11795;47.054;15.408;2023-01-20T02:38:05;15.4;;;13.5;;
23252;SDS011;11795;47.054;15.408;2023-01-20T02:40:06;15.4;;;13.5;;
23252;SDS011;11795;47.054;15.408;2023-01-20T02:42:01;23.6;;;14.2;;
23252;SDS011;11795;47.054;15.408;2023-01-20T02:44:02;23.6;;;14.2;;
23252;SDS011;11795;47.054;15.408;2023-01-20T02:46:00;23.6;;;14.2;;
23252;SDS011;11795;47.054;15.408;2023-01-20T02:48:00;16.3;;;13.3;;
23252;SDS011;11795;47.054;15.408;2023-01-20T02:50:00;16.3;;;13.3;;
23252;SDS011;11795;47.054;15.408;2023-01-20T02:52:02;15.8;;;12.7;;
23252;SDS011;11795;47.054;15.408;2023-01-20T02:54:00;15.8;;;12.7;;
23252;SDS011;11795;47.054;15.408;2023-01-20T02:56:00;15.8;;;12.7;;
23252;SDS011;11795;47.054;15.408;2023-01-20T02:58:01;17.2;;;12.3;;
23252;SDS011;11795;47.054;15.408;2023-01-20T03:00:02;17.2;;;12.3;;
23252;SDS011;11795;47.054;15.408;2023-01-20T03:02:01;27.2;;;12.2;;
23252;SDS011;11795;47.054;15.408;2023-01-20T03:04:00;27.2;;;12.2;;
23252;SDS011;11795;47.054;15.408;2023-01-20T03:06:01;27.2;;;12.2;;
23252;SDS011;11795;47.054;15.408;2023-01-20T03:08:01;12.7;;;11.1;;
23252;SDS011;11795;47.054;15.408;2023-01-20T03:10:01;12.7;;;11.1;;
23252;SDS011;11795;47.054;15.408;2023-01-20T03:12:00;14.2;;;11.3;;
23252;SDS011;11795;47.054;15.408;2023-01-20T03:14:00;14.2;;;11.3;;
23252;SDS011;11795;47.054;15.408;2023-01-20T03:16:01;14.2;;;11.3;;
23252;SDS011;11795;47.054;15.408;2023-01-20T03:18:00;15.7;;;12.7;;
23252;SDS011;11795;47.054;15.408;2023-01-20T03:20:00;15.7;;;12.7;;
23252;SDS011;11795;47.054;15.408;2023-01-20T03:22:00;16.3;;;13.1;;
23252;SDS011;11795;47.054;15.408;2023-01-20T03:24:00;16.3;;;13.1;;
23252;SDS011;11795;47.054;15.408;2023-01-20T03:26:01;16.3;;;13.1;;
23252;SDS011;11795;47.054;15.408;2023-01-20T03:28:00;16.6;;;13.2;;
23252;SDS011;11795;47.054;15.408;2023-01-20T03:30:00;16.6;;;13.2;;
23252;SDS011;11795;47.054;15.408;2023-01-20T03:32:00;16.2;;;12.7;;
23252;SDS011;11795;47.054;15.408;2023-01-20T03:34:00;16.2;;;12.7;;
23252;SDS011;11795;47.054;15.408;2023-01-20T03:36:00;16.2;;;12.7;;
23252;SDS011;11795;47.054;15.408;2023-01-20T03:38:00;13.4;;;11.7;;
23252;SDS011;11795;47.054;15.408;2023-01-20T03:40:01;13.4;;;11.7;;
23252;SDS011;11795;47.054;15.408;2023-01-20T03:42:02;15.6;;;13.2;;
23252;SDS011;11795;47.054;15.408;2023-01-20T03:44:02;15.6;;;13.2;;
23252;SDS011;11795;47.054;15.408;2023-01-20T03:46:01;15.6;;;13.2;;
23252;SDS011;11795;47.054;15.408;2023-01-20T03:48:02;19.0;;;13.4;;
23252;SDS011;11795;47.054;15.408;2023-01-20T03:50:03;19.0;;;13.4;;
23252;SDS011;11795;47.054;15.408;2023-01-20T03:52:01;21.5;;;13.5;;
23252;SDS011;11795;47.054;15.408;2023-01-20T03:54:01;21.5;;;13.5;;
23252;SDS011;11795;47.054;15.408;2023-01-20T03:56:01;21.5;;;13.5;;
23252;SDS011;11795;47.054;15.408;2023-01-20T03:58:03;15.1;;;12.9;;
23252;SDS011;11795;47.054;15.408;2023-01-20T04:00:00;15.1;;;12.9;;
23252;SDS011;11795;47.054;15.408;2023-01-20T04:02:00;13.2;;;11.2;;
23252;SDS011;11795;47.054;15.408;2023-01-20T04:04:00;13.2;;;11.2;;
23252;SDS011;11795;47.054;15.408;2023-01-20T04:06:01;13.2;;;11.2;;
23252;SDS011;11795;47.054;15.408;2023-01-20T04:08:01;13.8;;;12.0;;
23252;SDS011;11795;47.054;15.408;2023-01-20T04:10:02;13.8;;;12.0;;
23252;SDS011;11795;47.054;15.408;2023-01-20T04:12:00;13.8;;;11.8;;
23252;SDS011;11795;47.054;15.408;2023-01-20T04:14:00;13.8;;;11.8;;
23252;SDS011;11795;47.054;15.408;2023-01-20T04:16:00;13.8;;;11.8;;
23252;SDS011;11795;47.054;15.408;2023-01-20T04:18:09;14.2;;;11.5;;
23252;SDS011;11795;47.054;15.408;2023-01-20T04:20:02;14.2;;;11.5;;
23252;SDS011;11795;47.054;15.408;2023-01-20T04:22:02;13.8;;;10.9;;
23252;SDS011;11795;47.054;15.408;2023-01-20T04:24:01;13.8;;;10.9;;
23252;SDS011;11795;47.054;15.408;2023-01-20T04:26:00;13.8;;;10.9;;
23252;SDS011;11795;47.054;15.408;2023-01-20T04:28:00;13.6;;;11.4;;
23252;SDS011;11795;47.054;15.408;2023-01-20T04:30:00;13.6;;;11.4;;
23252;SDS011;11795;47.054;15.408;2023-01-20T04:32:00;16.0;;;12.6;;
23252;SDS011;11795;47.054;15.408;2023-01-20T04:34:00;16.0;;;12.6;;
23252;SDS011;11795;47.054;15.408;2023-01-20T04:36:00;16.0;;;12.6;;
23252;SDS011;11795;47.054;15.408;2023-01-20T04:38:00;14.9;;;12.1;;
23252;SDS011;11795;47.054;15.408;2023-01-20T04:40:00;14.9;;;12.1;;
23252;SDS011;11795;47.054;15.408;2023-01-20T04:42:00;14.1;;;11.9;;
23252;SDS011;11795;47.054;15.408;2023-01-20T04:44:00;14.1;;;11.9;;
23252;SDS011;11795;47.054;15.408;2023-01-20T04:46:00;14.1;;;11.9;;
23252;SDS011;11795;47.054;15.408;2023-01-20T04:48:00;15.2;;;12.6;;
23252;SDS011;11795;47.054;15.408;2023-01-20T04:50:00;15.2;;;12.6;;
23252;SDS011;11795;47.054;15.408;2023-01-20T04:52:00;14.0;;;11.5;;
23252;SDS011;11795;47.054;15.408;2023-01-20T04:54:00;14.0;;;11.5;;
23252;SDS011;11795;47.054;15.408;2023-01-20T04:56:00;14.0;;;11.5;;
23252;SDS011;11795;47.054;15.408;2023-01-20T04:58:00;13.8;;;11.9;;
23252;SDS011;11795;47.054;15.408;2023-01-20T05:00:00;13.8;;;11.9;;
23252;SDS011;11795;47.054;15.408;2023-01-20T05:02:00;15.4;;;12.7;;
23252;SDS011;11795;47.054;15.408;2023-01-20T05:04:00;15.4;;;12.7;;
23252;SDS011;11795;47.054;15.408;2023-01-20T05:06:00;15.4;;;12.7;;
23252;SDS011;11795;47.054;15.408;2023-01-20T05:08:00;15.7;;;13.2;;
23252;SDS011;11795;47.054;15.408;2023-01-20T05:10:00;15.7;;;13.2;;
23252;SDS011;11795;47.054;15.408;2023-01-20T05:12:00;17.5;;;13.1;;
23252;SDS011;11795;47.054;15.408;2023-01-20T05:14:00;17.5;;;13.1;;
23252;SDS011;11795;47.054;15.408;2023-01-20T05:16:00;17.5;;;13.1;;
23252;SDS011;11795;47.054;15.408;2023-01-20T05:18:00;16.5;;;13.2;;
23252;SDS011;11795;47.054;15.408;2023-01-20T05:20:00;16.5;;;13.2;;
23252;SDS011;11795;47.054;15.408;2023-01-20T05:22:00;15.4;;;12.1;;
23252;SDS011;11795;47.054;15.408;2023-01-20T05:24:00;15.4;;;12.1;;
23252;SDS011;11795;47.054;15.408;2023-01-20T05:26:00;15.4;;;12.1;;
23252;SDS011;11795;47.054;15.408;2023-01-20T05:28:00;14.6;;;12.1;;
23252;SDS011;11795;47.054;15.408;2023-01-20T05:30:00;14.6;;;12.1;;
23252;SDS011;11795;47.054;15.408;2023-01-20T05:32:00;16.7;;;13.6;;
23252;SDS011;11795;47.054;15.408;2023-01-20T05:34:00;16.7;;;13.6;;
23252;SDS011;11795;47.054;15.408;2023-01-20T05:36:03;16.7;;;13.6;;
23252;SDS011;11795;47.054;15.408;2023-01-20T05:38:00;16.8;;;13.9;;
23252;SDS011;11795;47.054;15.408;2023-01-20T05:40:00;16.8;;;13.9;;
23252;SDS011;11795;47.054;15.408;2023-01-20T05:42:00;18.5;;;14.3;;
23252;SDS011;11795;47.054;15.408;2023-01-20T05:44:00;18.5;;;14.3;;
23252;SDS011;11795;47.054;15.408;2023-01-20T05:46:00;18.5;;;14.3;;
23252;SDS011;11795;47.054;15.408;2023-01-20T05:48:00;21.8;;;15.5;;
23252;SDS011;11795;47.054;15.408;2023-01-20T05:50:00;21.8;;;15.5;;
23252;SDS011;11795;47.054;15.408;2023-01-20T05:52:00;18.9;;;14.7;;
23252;SDS011;11795;47.054;15.408;2023-01-20T05:54:00;18.9;;;14.7;;
23252;SDS011;11795;47.054;15.408;2023-01-20T05:56:01;18.9;;;14.7;;
23252;SDS011;11795;47.054;15.408;2023-01-20T05:58:00;20.0;;;15.0;;
23252;SDS011;11795;47.054;15.408;2023-01-20T06:00:00;20.0;;;15.0;;
23252;SDS011;11795;47.054;15.408;2023-01-20T06:02:00;19.6;;;15.1;;
23252;SDS011;11795;47.054;15.408;2023-01-20T06:04:00;19.6;;;15.1;;
23252;SDS011;11795;47.054;15.408;2023-01-20T06:06:00;19.6;;;15.1;;
23252;SDS011;11795;47.054;15.408;2023-01-20T06:08:00;17.4;;;14.0;;
23252;SDS011;11795;47.054;15.408;2023-01-20T06:10:01;17.4;;;14.0;;
23252;SDS011;11795;47.054;15.408;2023-01-20T06:12:00;17.6;;;13.8;;
23252;SDS011;11795;47.054;15.408;2023-01-20T06:14:00;17.6;;;13.8;;
23252;SDS011;11795;47.054;15.408;2023-01-20T06:16:00;17.6;;;13.8;;
23252;SDS011;11795;47.054;15.408;2023-01-20T06:18:00;17.0;;;13.6;;
23252;SDS011;11795;47.054;15.408;2023-01-20T06:20:00;17.0;;;13.6;;
23252;SDS011;11795;47.054;15.408;2023-01-20T06:22:00;17.0;;;13.5;;
23252;SDS011;11795;47.054;15.408;2023-01-20T06:24:00;17.0;;;13.5;;
23252;SDS011;11795;47.054;15.408;2023-01-20T06:26:00;17.0;;;13.5;;
23252;SDS011;11795;47.054;15.408;2023-01-20T06:28:00;18.6;;;14.1;;
23252;SDS011;11795;47.054;15.408;2023-01-20T06:30:00;18.6;;;14.1;;
23252;SDS011;11795;47.054;15.408;2023-01-20T06:32:00;15.2;;;13.2;;
23252;SDS011;11795;47.054;15.408;2023-01-20T06:34:00;15.2;;;13.2;;
23252;SDS011;11795;47.054;15.408;2023-01-20T06:36:00;15.2;;;13.2;;
23252;SDS011;11795;47.054;15.408;2023-01-20T06:38:00;26.1;;;18.4;;
23252;SDS011;11795;47.054;15.408;2023-01-20T06:40:00;26.1;;;18.4;;
23252;SDS011;11795;47.054;15.408;2023-01-20T06:42:00;21.5;;;18.2;;
23252;SDS011;11795;47.054;15.408;2023-01-20T06:44:00;21.5;;;18.2;;
23252;SDS011;11795;47.054;15.408;2023-01-20T06:46:00;21.5;;;18.2;;
23252;SDS011;11795;47.054;15.408;2023-01-20T06:48:00;21.4;;;17.1;;
23252;SDS011;11795;47.054;15.408;2023-01-20T06:50:00;21.4;;;17.1;;
23252;SDS011;11795;47.054;15.408;2023-01-20T06:52:00;19.6;;;15.8;;
23252;SDS011;11795;47.054;15.408;2023-01-20T06:54:00;19.6;;;15.8;;
23252;SDS011;11795;47.054;15.408;2023-01-20T06:56:00;19.6;;;15.8;;
23252;SDS011;11795;47.054;15.408;2023-01-20T06:58:00;15.9;;;12.7;;
23252;SDS011;11795;47.054;15.408;2023-01-20T07:00:00;15.9;;;12.7;;
23252;SDS011;11795;47.054;15.408;2023-01-20T07:02:00;6.7;;;4.7;;
23252;SDS011;11795;47.054;15.408;2023-01-20T07:04:00;6.7;;;4.7;;
23252;SDS011;11795;47.054;15.408;2023-01-20T07:06:00;6.7;;;4.7;;
23252;SDS011;11795;47.054;15.408;2023-01-20T07:08:00;3.7;;;3.0;;
23252;SDS011;11795;47.054;15.408;2023-01-20T07:10:00;3.7;;;3.0;;
23252;SDS011;11795;47.054;15.408;2023-01-20T07:12:00;3.6;;;2.5;;
23252;SDS011;11795;47.054;15.408;2023-01-20T07:14:00;3.6;;;2.5;;
23252;SDS011;11795;47.054;15.408;2023-01-20T07:16:00;3.6;;;2.5;;
23252;SDS011;11795;47.054;15.408;2023-01-20T07:18:00;3.6;;;2.5;;
23252;SDS011;11795;47.054;15.408;2023-01-20T07:20:00;3.6;;;2.5;;
23252;SDS011;11795;47.054;15.408;2023-01-20T07:22:00;2.7;;;2.1;;
23252;SDS011;11795;47.054;15.408;2023-01-20T07:24:00;2.7;;;2.1;;
23252;SDS011;11795;47.054;15.408;2023-01-20T07:26:01;2.7;;;2.1;;
23252;SDS011;11795;47.054;15.408;2023-01-20T07:28:00;3.8;;;2.3;;
23252;SDS011;11795;47.054;15.408;2023-01-20T07:30:00;3.8;;;2.3;;
23252;SDS011;11795;47.054;15.408;2023-01-20T07:32:00;3.2;;;2.5;;
23252;SDS011;11795;47.054;15.408;2023-01-20T07:34:00;3.2;;;2.5;;
23252;SDS011;11795;47.054;15.408;2023-01-20T07:36:01;3.2;;;2.5;;
23252;SDS011;11795;47.054;15.408;2023-01-20T07:38:00;3.9;;;2.7;;
23252;SDS011;11795;47.054;15.408;2023-01-20T07:40:00;3.9;;;2.7;;
23252;SDS011;11795;47.054;15.408;2023-01-20T07:42:00;3.6;;;2.4;;
23252;SDS011;11795;47.054;15.408;2023-01-20T07:44:00;3.6;;;2.4;;
23252;SDS011;11795;47.054;15.408;2023-01-20T07:46:00;3.6;;;2.4;;
23252;SDS011;11795;47.054;15.408;2023-01-20T07:48:02;4.1;;;2.7;;
23252;SDS011;11795;47.054;15.408;2023-01-20T07:50:00;4.1;;;2.7;;
23252;SDS011;11795;47.054;15.408;2023-01-20T07:52:00;3.1;;;1.9;;
23252;SDS011;11795;47.054;15.408;2023-01-20T07:54:02;3.1;;;1.9;;
23252;SDS011;11795;47.054;15.408;2023-01-20T07:56:00;3.1;;;1.9;;
23252;SDS011;11795;47.054;15.408;2023-01-20T07:58:01;3.9;;;2.0;;
23252;SDS011;11795;47.054;15.408;2023-01-20T08:00:00;3.9;;;2.0;;
23252;SDS011;11795;47.054;15.408;2023-01-20T08:02:00;2.1;;;1.9;;
23252;SDS011;11795;47.054;15.408;2023-01-20T08:04:00;2.1;;;1.9;;
23252;SDS011;11795;47.054;15.408;2023-01-20T08:06:00;2.1;;;1.9;;
23252;SDS011;11795;47.054;15.408;2023-01-20T08:08:00;2.7;;;2.1;;
23252;SDS011;11795;47.054;15.408;2023-01-20T08:10:00;2.7;;;2.1;;
23252;SDS011;11795;47.054;15.408;2023-01-20T08:12:01;3.6;;;2.6;;
23252;SDS011;11795;47.054;15.408;2023-01-20T08:14:00;3.6;;;2.6;;
23252;SDS011;11795;47.054;15.408;2023-01-20T08:16:00;3.6;;;2.6;;
23252;SDS011;11795;47.054;15.408;2023-01-20T08:18:00;3.6;;;2.9;;
23252;SDS011;11795;47.054;15.408;2023-01-20T08:20:00;3.6;;;2.9;;
23252;SDS011;11795;47.054;15.408;2023-01-20T08:22:00;3.0;;;1.8;;
23252;SDS011;11795;47.054;15.408;2023-01-20T08:24:01;3.0;;;1.8;;
23252;SDS011;11795;47.054;15.408;2023-01-20T08:26:01;3.0;;;1.8;;
23252;SDS011;11795;47.054;15.408;2023-01-20T08:28:00;3.7;;;2.4;;
23252;SDS011;11795;47.054;15.408;2023-01-20T08:30:00;3.7;;;2.4;;
23252;SDS011;11795;47.054;15.408;2023-01-20T08:32:00;4.1;;;2.7;;
23252;SDS011;11795;47.054;15.408;2023-01-20T08:34:01;4.1;;;2.7;;
23252;SDS011;11795;47.054;15.408;2023-01-20T08:36:04;4.1;;;2.7;;
23252;SDS011;11795;47.054;15.408;2023-01-20T08:38:02;2.9;;;2.0;;
23252;SDS011;11795;47.054;15.408;2023-01-20T08:40:00;2.9;;;2.0;;
23252;SDS011;11795;47.054;15.408;2023-01-20T08:42:00;2.9;;;2.3;;
23252;SDS011;11795;47.054;15.408;2023-01-20T08:44:00;2.9;;;2.3;;
23252;SDS011;11795;47.054;15.408;2023-01-20T08:46:00;2.9;;;2.3;;
23252;SDS011;11795;47.054;15.408;2023-01-20T08:48:00;3.0;;;1.7;;
23252;SDS011;11795;47.054;15.408;2023-01-20T08:50:00;3.0;;;1.7;;
23252;SDS011;11795;47.054;15.408;2023-01-20T08:52:00;4.2;;;1.7;;
23252;SDS011;11795;47.054;15.408;2023-01-20T08:54:00;4.2;;;1.7;;
23252;SDS011;11795;47.054;15.408;2023-01-20T08:56:00;4.2;;;1.7;;
23252;SDS011;11795;47.054;15.408;2023-01-20T08:58:00;3.2;;;1.8;;
23252;SDS011;11795;47.054;15.408;2023-01-20T09:00:00;3.2;;;1.8;;
23252;SDS011;11795;47.054;15.408;2023-01-20T09:02:00;2.2;;;1.9;;
23252;SDS011;11795;47.054;15.408;2023-01-20T09:04:00;2.2;;;1.9;;
23252;SDS011;11795;47.054;15.408;2023-01-20T09:06:00;2.2;;;1.9;;
23252;SDS011;11795;47.054;15.408;2023-01-20T09:08:00;5.0;;;2.3;;
23252;SDS011;11795;47.054;15.408;2023-01-20T09:10:00;5.0;;;2.3;;
23252;SDS011;11795;47.054;15.408;2023-01-20T09:12:00;3.1;;;1.9;;
23252;SDS011;11795;47.054;15.408;2023-01-20T09:14:00;3.1;;;1.9;;
23252;SDS011;11795;47.054;15.408;2023-01-20T09:16:00;3.1;;;1.9;;
23252;SDS011;11795;47.054;15.408;2023-01-20T09:18:00;2.4;;;1.8;;
23252;SDS011;11795;47.054;15.408;2023-01-20T09:20:00;2.4;;;1.8;;
23252;SDS011;11795;47.054;15.408;2023-01-20T09:22:00;3.1;;;1.8;;
23252;SDS011;11795;47.054;15.408;2023-01-20T09:24:00;3.1;;;1.8;;
23252;SDS011;11795;47.054;15.408;2023-01-20T09:26:00;3.1;;;1.8;;
23252;SDS011;11795;47.054;15.408;2023-01-20T09:28:00;2.3;;;1.6;;
23252;SDS011;11795;47.054;15.408;2023-01-20T09:30:00;2.3;;;1.6;;
23252;SDS011;11795;47.054;15.408;2023-01-20T09:32:00;4.1;;;1.9;;
23252;SDS011;11795;47.054;15.408;2023-01-20T09:34:00;4.1;;;1.9;;
23252;SDS011;11795;47.054;15.408;2023-01-20T09:36:00;4.1;;;1.9;;
23252;SDS011;11795;47.054;15.408;2023-01-20T09:38:11;2.9;;;1.8;;
23252;SDS011;11795;47.054;15.408;2023-01-20T09:40:11;2.9;;;1.8;;
23252;SDS011;11795;47.054;15.408;2023-01-20T09:42:14;2.1;;;1.7;;
23252;SDS011;11795;47.054;15.408;2023-01-20T09:44:02;2.1;;;1.7;;
23252;SDS011;11795;47.054;15.408;2023-01-20T09:46:02;2.1;;;1.7;;
23252;SDS011;11795;47.054;15.408;2023-01-20T09:48:02;3.7;;;1.8;;
23252;SDS011;11795;47.054;15.408;2023-01-20T09:50:13;3.7;;;1.8;;
23252;SDS011;11795;47.054;15.408;2023-01-20T09:52:11;3.0;;;2.0;;
23252;SDS011;11795;47.054;15.408;2023-01-20T09:54:01;3.0;;;2.0;;
23252;SDS011;11795;47.054;15.408;2023-01-20T09:56:01;3.0;;;2.0;;
23252;SDS011;11795;47.054;15.408;2023-01-20T09:58:04;3.7;;;2.4;;
23252;SDS011;11795;47.054;15.408;2023-01-20T10:00:00;3.7;;;2.4;;
23252;SDS011;11795;47.054;15.408;2023-01-20T10:02:00;3.8;;;2.1;;
23252;SDS011;11795;47.054;15.408;2023-01-20T10:04:03;3.8;;;2.1;;
23252;SDS011;11795;47.054;15.408;2023-01-20T10:06:00;3.8;;;2.1;;
23252;SDS011;11795;47.054;15.408;2023-01-20T10:08:00;3.3;;;2.2;;
23252;SDS011;11795;47.054;15.408;2023-01-20T10:10:02;3.3;;;2.2;;
23252;SDS011;11795;47.054;15.408;2023-01-20T10:12:01;4.3;;;3.1;;
23252;SDS011;11795;47.054;15.408;2023-01-20T10:14:01;4.3;;;3.1;;
23252;SDS011;11795;47.054;15.408;2023-01-20T10:16:01;4.3;;;3.1;;
23252;SDS011;11795;47.054;15.408;2023-01-20T10:18:01;3.5;;;2.1;;
23252;SDS011;11795;47.054;15.408;2023-01-20T10:20:04;3.5;;;2.1;;
23252;SDS011;11795;47.054;15.408;2023-01-20T10:22:02;3.0;;;2.2;;
23252;SDS011;11795;47.054;15.408;2023-01-20T10:24:01;3.0;;;2.2;;
23252;SDS011;11795;47.054;15.408;2023-01-20T10:26:03;3.0;;;2.2;;
23252;SDS011;11795;47.054;15.408;2023-01-20T10:28:02;3.5;;;2.0;;
23252;SDS011;11795;47.054;15.408;2023-01-20T10:30:03;3.5;;;2.0;;
23252;SDS011;11795;47.054;15.408;2023-01-20T10:32:01;2.1;;;1.8;;
23252;SDS011;11795;47.054;15.408;2023-01-20T10:34:05;2.1;;;1.8;;
23252;SDS011;11795;47.054;15.408;2023-01-20T10:36:00;2.1;;;1.8;;
23252;SDS011;11795;47.054;15.408;2023-01-20T10:38:00;4.5;;;2.3;;
23252;SDS011;11795;47.054;15.408;2023-01-20T10:40:02;4.5;;;2.3;;
23252;SDS011;11795;47.054;15.408;2023-01-20T10:42:01;4.0;;;2.3;;
23252;SDS011;11795;47.054;15.408;2023-01-20T10:44:00;4.0;;;2.3;;
23252;SDS011;11795;47.054;15.408;2023-01-20T10:46:04;4.0;;;2.3;;
23252;SDS011;11795;47.054;15.408;2023-01-20T10:48:02;2.7;;;2.2;;
23252;SDS011;11795;47.054;15.408;2023-01-20T10:52:05;3.7;;;2.1;;
23252;SDS011;11795;47.054;15.408;2023-01-20T10:54:02;3.7;;;2.1;;
23252;SDS011;11795;47.054;15.408;2023-01-20T10:56:03;3.7;;;2.1;;
23252;SDS011;11795;47.054;15.408;2023-01-20T10:58:00;3.3;;;2.1;;
23252;SDS011;11795;47.054;15.408;2023-01-20T11:00:00;3.3;;;2.1;;
23252;SDS011;11795;47.054;15.408;2023-01-20T11:02:01;4.5;;;2.5;;
23252;SDS011;11795;47.054;15.408;2023-01-20T11:04:00;4.5;;;2.5;;
23252;SDS011;11795;47.054;15.408;2023-01-20T11:06:00;4.5;;;2.5;;
23252;SDS011;11795;47.054;15.408;2023-01-20T11:08:01;2.7;;;2.1;;
23252;SDS011;11795;47.054;15.408;2023-01-20T11:10:00;2.7;;;2.1;;
23252;SDS011;11795;47.054;15.408;2023-01-20T11:12:00;2.9;;;2.3;;
23252;SDS011;11795;47.054;15.408;2023-01-20T11:14:00;2.9;;;2.3;;
23252;SDS011;11795;47.054;15.408;2023-01-20T11:16:01;2.9;;;2.3;;
23252;SDS011;11795;47.054;15.408;2023-01-20T11:20:03;4.3;;;2.3;;
23252;SDS011;11795;47.054;15.408;2023-01-20T11:22:08;2.6;;;2.1;;
23252;SDS011;11795;47.054;15.408;2023-01-20T11:24:00;2.6;;;2.1;;
23252;SDS011;11795;47.054;15.408;2023-01-20T11:26:01;2.6;;;2.1;;
23252;SDS011;11795;47.054;15.408;2023-01-20T11:28:01;3.6;;;2.5;;
23252;SDS011;11795;47.054;15.408;2023-01-20T11:30:02;3.6;;;2.5;;
23252;SDS011;11795;47.054;15.408;2023-01-20T11:32:00;3.1;;;2.3;;
23252;SDS011;11795;47.054;15.408;2023-01-20T11:34:01;3.1;;;2.3;;
23252;SDS011;11795;47.054;15.408;2023-01-20T11:36:01;3.1;;;2.3;;
23252;SDS011;11795;47.054;15.408;2023-01-20T11:38:01;2.5;;;2.3;;
23252;SDS011;11795;47.054;15.408;2023-01-20T11:40:01;2.5;;;2.3;;
23252;SDS011;11795;47.054;15.408;2023-01-20T11:42:09;3.2;;;2.4;;
23252;SDS011;11795;47.054;15.408;2023-01-20T11:44:00;3.2;;;2.4;;
23252;SDS011;11795;47.054;15.408;2023-01-20T11:46:08;3.2;;;2.4;;
23252;SDS011;11795;47.054;15.408;2023-01-20T11:48:02;3.6;;;2.2;;
23252;SDS011;11795;47.054;15.408;2023-01-20T11:50:11;3.6;;;2.2;;
23252;SDS011;11795;47.054;15.408;2023-01-20T11:52:01;2.7;;;2.1;;
23252;SDS011;11795;47.054;15.408;2023-01-20T11:54:05;2.7;;;2.1;;
23252;SDS011;11795;47.054;15.408;2023-01-20T11:56:00;2.7;;;2.1;;
23252;SDS011;11795;47.054;15.408;2023-01-20T11:58:01;2.8;;;2.3;;
23252;SDS011;11795;47.054;15.408;2023-01-20T12:00:00;2.8;;;2.3;;
23252;SDS011;11795;47.054;15.408;2023-01-20T12:02:03;3.0;;;2.4;;
23252;SDS011;11795;47.054;15.408;2023-01-20T12:04:04;3.0;;;2.4;;